createdAt,value
2022-11-20T00:02:15.785Z,7.22
2022-11-20T00:07:17.737Z,7.52
2022-11-20T00:12:19.639Z,7.52
2022-11-20T00:17:21.491Z,7.55
2022-11-20T00:22:23.466Z,7.48
2022-11-20T00:27:25.365Z,7.50
2022-11-20T00:32:27.239Z,7.47
2022-11-20T00:37:29.458Z,7.46
2022-11-20T00:42:33.797Z,7.41
2022-11-20T00:47:35.634Z,7.48
2022-11-20T00:52:37.589Z,7.52
2022-11-20T00:57:39.698Z,7.52
2022-11-20T01:02:41.566Z,7.53
2022-11-20T01:07:43.482Z,7.56
2022-11-20T01:13:05.227Z,7.30
2022-11-20T01:18:07.275Z,7.26
2022-11-20T01:23:09.225Z,7.45
2022-11-20T01:29:16.753Z,7.40
2022-11-20T01:34:20.482Z,7.35
2022-11-20T01:39:24.732Z,7.23
2022-11-20T01:51:43.826Z,7.44
2022-11-20T01:56:46.867Z,7.57
2022-11-20T02:01:48.827Z,7.64
2022-11-20T02:06:55.059Z,7.59
2022-11-20T02:11:57.480Z,7.59
2022-11-20T02:16:59.480Z,7.75
2022-11-20T02:22:07.098Z,7.71
2022-11-20T02:27:11.532Z,7.76
2022-11-20T02:32:31.377Z,7.75
2022-11-20T02:37:35.215Z,7.70
2022-11-20T02:42:37.913Z,7.33
2022-11-20T02:47:39.812Z,7.58
2022-11-20T02:52:41.839Z,7.32
2022-11-20T02:57:43.687Z,7.56
2022-11-20T03:02:45.646Z,7.56
2022-11-20T03:07:47.598Z,7.54
2022-11-20T03:12:54.186Z,7.30
2022-11-20T03:17:56.815Z,7.51
2022-11-20T03:22:58.724Z,7.53
2022-11-20T03:28:00.580Z,7.63
2022-11-20T03:33:02.417Z,7.62
2022-11-20T03:38:04.293Z,7.44
2022-11-20T03:43:06.296Z,7.43
2022-11-20T03:48:30.066Z,7.62
2022-11-20T03:53:31.922Z,7.52
2022-11-20T03:58:36.060Z,7.57
2022-11-20T04:03:39.132Z,7.53
2022-11-20T04:08:41.969Z,7.56
2022-11-20T04:13:48.366Z,7.56
2022-11-20T04:18:57.884Z,7.56
2022-11-20T04:23:59.879Z,7.57
2022-11-20T04:29:04.726Z,7.54
2022-11-20T04:34:08.265Z,7.45
2022-11-20T04:39:15.313Z,7.40
2022-11-20T04:44:17.299Z,7.41
2022-11-20T04:49:19.928Z,7.11
2022-11-20T05:01:46.479Z,7.17
2022-11-20T05:06:48.304Z,7.07
2022-11-20T05:11:51.643Z,7.02
2022-11-20T05:16:53.613Z,7.00
2022-11-20T05:21:55.504Z,6.92
2022-11-20T05:26:57.355Z,6.88
2022-11-20T05:31:59.247Z,6.53
2022-11-20T05:37:01.104Z,6.73
2022-11-20T05:42:21.649Z,6.65
2022-11-20T05:47:23.513Z,6.61
2022-11-20T05:59:49.205Z,6.51
2022-11-20T06:04:51.094Z,6.42
2022-11-20T06:09:52.971Z,6.34
2022-11-20T06:14:54.764Z,6.31
2022-11-20T06:19:56.596Z,6.36
2022-11-20T06:24:58.533Z,6.33
2022-11-20T06:37:24.667Z,6.37
2022-11-20T06:42:26.582Z,6.18
2022-11-20T06:47:28.449Z,6.30
2022-11-20T06:52:30.325Z,6.25
2022-11-20T06:57:32.283Z,6.25
2022-11-20T07:02:34.149Z,6.20
2022-11-20T07:07:36.177Z,5.89
2022-11-20T07:12:38.052Z,6.10
2022-11-20T07:17:39.972Z,5.98
2022-11-20T07:22:42.433Z,5.70
2022-11-20T07:27:44.217Z,5.69
2022-11-20T07:32:52.725Z,5.70
2022-11-20T07:37:54.691Z,5.78
2022-11-20T07:42:57.228Z,6.02
2022-11-20T07:47:59.204Z,6.00
2022-11-20T07:53:07.342Z,6.05
2022-11-20T07:58:09.210Z,6.22
2022-11-20T08:03:11.147Z,6.31
2022-11-20T08:08:13.301Z,6.36
2022-11-20T08:13:33.352Z,6.51
2022-11-20T08:18:35.193Z,6.71
2022-11-20T08:23:37.047Z,6.86
2022-11-20T08:28:38.972Z,6.92
2022-11-20T08:33:41.228Z,7.06
2022-11-20T08:38:43.668Z,7.25
2022-11-20T08:43:45.597Z,7.45
2022-11-20T08:48:47.425Z,7.61
2022-11-20T08:54:34.929Z,7.86
2022-11-20T09:00:04.330Z,8.21
2022-11-20T09:04:58.666Z,8.64
2022-11-20T09:11:08.542Z,10.17
2022-11-20T09:16:10.508Z,11.99
2022-11-20T09:21:14.887Z,13.15
2022-11-20T09:26:16.904Z,13.90
2022-11-20T09:31:27.044Z,14.85
2022-11-20T09:36:28.864Z,15.18
2022-11-20T09:41:50.989Z,15.45
2022-11-20T09:46:58.538Z,15.79
2022-11-20T09:52:02.682Z,15.85
2022-11-20T09:57:08.476Z,16.67
2022-11-20T10:02:43.288Z,16.53
2022-11-20T10:14:43.714Z,15.11
2022-11-20T10:26:58.660Z,14.01
2022-11-20T10:32:14.464Z,13.90
2022-11-20T10:37:19.869Z,14.27
2022-11-20T10:42:40.419Z,15.67
2022-11-20T10:47:42.384Z,15.09
2022-11-20T10:53:13.317Z,14.81
2022-11-20T10:58:21.206Z,14.52
2022-11-20T11:03:29.005Z,14.48
2022-11-20T11:08:37.715Z,14.34
2022-11-20T11:13:39.516Z,13.98
2022-11-20T11:18:43.200Z,13.99
2022-11-20T11:23:45.080Z,14.21
2022-11-20T11:29:04.671Z,14.40
2022-11-20T11:41:21.803Z,14.41
2022-11-20T11:46:23.686Z,14.46
2022-11-20T11:51:43.310Z,14.38
2022-11-20T11:56:46.248Z,14.69
2022-11-20T12:02:16.522Z,14.56
2022-11-20T12:07:47.405Z,14.63
2022-11-20T12:12:53.687Z,14.61
2022-11-20T12:17:55.758Z,14.57
2022-11-20T12:23:06.110Z,14.42
2022-11-20T12:28:16.990Z,14.48
2022-11-20T12:33:22.002Z,14.55
2022-11-20T12:39:01.040Z,14.65
2022-11-20T12:44:44.273Z,14.65
2022-11-20T12:49:56.588Z,14.69
2022-11-20T12:55:02.427Z,14.71
2022-11-20T13:00:15.533Z,14.69
2022-11-20T13:05:21.191Z,14.97
2022-11-20T13:10:45.005Z,15.02
2022-11-20T13:15:55.440Z,15.13
2022-11-20T13:20:57.138Z,15.16
2022-11-20T13:26:17.670Z,15.27
2022-11-20T13:31:32.106Z,15.27
2022-11-20T13:36:36.151Z,15.19
2022-11-20T13:41:40.603Z,14.99
2022-11-20T13:46:44.935Z,15.05
2022-11-20T13:51:49.085Z,14.88
2022-11-20T13:57:17.875Z,15.23
2022-11-20T14:02:21.497Z,15.29
2022-11-20T14:07:27.077Z,15.26
2022-11-20T14:12:31.257Z,15.24
2022-11-20T14:17:36.070Z,15.00
2022-11-20T14:22:38.022Z,15.19
2022-11-20T14:27:43.856Z,15.12
2022-11-20T14:32:46.830Z,15.10
2022-11-20T14:37:48.808Z,15.11
2022-11-20T14:42:54.813Z,15.14
2022-11-20T14:47:57.981Z,15.23
2022-11-20T14:53:02.738Z,15.17
2022-11-20T14:58:22.618Z,15.20
2022-11-20T15:03:29.184Z,15.33
2022-11-20T15:08:33.748Z,15.13
2022-11-20T15:13:39.724Z,15.25
2022-11-20T15:18:45.069Z,15.22
2022-11-20T15:23:47.072Z,15.10
2022-11-20T15:28:51.270Z,15.01
2022-11-20T15:33:53.392Z,14.87
2022-11-20T15:38:55.187Z,14.92
2022-11-20T15:43:56.971Z,14.85
2022-11-20T15:49:00.820Z,14.93
2022-11-20T15:54:06.858Z,14.79
2022-11-20T15:59:08.798Z,14.75
2022-11-20T16:04:15.568Z,14.68
2022-11-20T16:09:17.365Z,14.56
2022-11-20T16:14:38.048Z,14.38
2022-11-20T16:19:40.269Z,14.42
2022-11-20T16:24:42.323Z,14.37
2022-11-20T16:29:44.312Z,14.31
2022-11-20T16:34:46.295Z,14.08
2022-11-20T16:39:48.174Z,13.98
2022-11-20T16:44:49.992Z,13.81
2022-11-20T16:49:51.771Z,13.64
2022-11-20T16:54:53.595Z,13.43
2022-11-20T17:00:01.756Z,13.39
2022-11-20T17:05:04.292Z,13.26
2022-11-20T17:10:06.474Z,13.10
2022-11-20T17:15:08.551Z,12.93
2022-11-20T17:20:12.389Z,12.85
2022-11-20T17:25:14.291Z,12.66
2022-11-20T17:30:16.401Z,12.61
2022-11-20T17:35:18.352Z,12.50
2022-11-20T17:40:25.908Z,12.42
2022-11-20T17:45:29.109Z,12.35
2022-11-20T17:50:30.911Z,12.30
2022-11-20T17:55:55.657Z,12.21
2022-11-20T18:01:05.667Z,12.09
2022-11-20T18:06:22.468Z,12.00
2022-11-20T18:11:26.662Z,11.90
2022-11-20T18:16:30.230Z,11.81
2022-11-20T18:21:32.532Z,11.69
2022-11-20T18:26:34.583Z,11.71
2022-11-20T18:31:37.406Z,11.41
2022-11-20T18:36:39.304Z,11.57
2022-11-20T18:42:19.985Z,11.54
2022-11-20T18:47:28.595Z,11.46
2022-11-20T18:52:33.919Z,11.48
2022-11-20T18:57:36.104Z,11.42
2022-11-20T19:02:42.311Z,11.43
2022-11-20T19:07:45.055Z,11.37
2022-11-20T19:12:46.851Z,11.15
2022-11-20T19:17:48.717Z,11.02
2022-11-20T19:22:51.212Z,11.19
2022-11-20T19:27:53.256Z,11.18
2022-11-20T19:32:55.248Z,11.08
2022-11-20T19:38:00.232Z,10.74
2022-11-20T19:43:05.939Z,10.96
2022-11-20T19:48:08.471Z,10.91
2022-11-20T19:53:11.751Z,10.91
2022-11-20T19:58:13.801Z,10.94
2022-11-20T20:03:15.666Z,10.94
2022-11-20T20:08:17.585Z,10.93
2022-11-20T20:13:19.513Z,10.93
2022-11-20T20:18:21.399Z,10.87
2022-11-20T20:23:23.227Z,10.95
2022-11-20T20:28:25.200Z,10.93
2022-11-20T20:33:27.097Z,10.73
2022-11-20T20:38:28.986Z,10.94
2022-11-20T20:43:31.605Z,10.92
2022-11-20T20:56:02.614Z,10.93
2022-11-20T21:01:09.779Z,10.95
2022-11-20T21:06:12.245Z,10.89
2022-11-20T21:11:16.308Z,10.94
2022-11-20T21:16:20.692Z,10.96
2022-11-20T21:21:41.134Z,10.90
2022-11-20T21:26:43.076Z,10.89
2022-11-20T21:31:45.064Z,10.65
2022-11-20T21:36:47.273Z,10.90
2022-11-20T21:42:53.427Z,10.90
2022-11-20T21:47:55.269Z,10.88
2022-11-20T21:52:57.150Z,10.99
2022-11-20T21:57:59.133Z,10.73
2022-11-20T22:03:01.010Z,10.96
2022-11-20T22:08:02.946Z,10.99
2022-11-20T22:13:23.556Z,11.08
2022-11-20T22:18:25.384Z,11.12
2022-11-20T22:23:27.167Z,10.92
2022-11-20T22:28:29.006Z,11.23
2022-11-20T22:33:31.990Z,11.25
2022-11-20T22:38:39.125Z,11.29
2022-11-20T22:43:42.354Z,11.32
2022-11-20T22:48:55.528Z,11.11
2022-11-20T22:53:57.887Z,11.37
2022-11-20T22:58:59.990Z,11.36
2022-11-20T23:04:04.621Z,11.11
2022-11-20T23:09:07.181Z,11.10
2022-11-20T23:14:13.758Z,11.36
2022-11-20T23:19:15.952Z,11.39
2022-11-20T23:24:17.781Z,11.27
2022-11-20T23:29:19.698Z,11.40
2022-11-20T23:34:21.604Z,11.44
2022-11-20T23:39:23.546Z,11.43
2022-11-20T23:44:25.923Z,11.47
2022-11-20T23:49:28.093Z,11.44
2022-11-20T23:54:29.922Z,11.48
2022-11-20T23:59:31.744Z,11.47
